sensor_id;sensor_type;location;lat;lon;timestamp;pressure;altitude;pressure_sealevel;temperature;humidity
28626;BME280;18905;42.668;23.364;2023-02-11T00:13:36;96755.06;;;-2.08;99.07
28626;BME280;18905;42.668;23.364;2023-02-11T00:44:15;96746.34;;;-1.83;96.51
28626;BME280;18905;42.668;23.364;2023-02-11T00:54:22;96745.16;;;-1.61;91.71
28626;BME280;18905;42.668;23.364;2023-02-11T00:59:21;96737.47;;;-2.29;92.12
28626;BME280;18905;42.668;23.364;2023-02-11T01:01:46;96739.09;;;-2.28;94.34
28626;BME280;18905;42.668;23.364;2023-02-11T01:04:13;96744.19;;;-2.26;95.33
28626;BME280;18905;42.668;23.364;2023-02-11T01:23:18;96732.19;;;-2.29;93.65
28626;BME280;18905;42.668;23.364;2023-02-11T01:38:39;96719.63;;;-2.07;89.60
28626;BME280;18905;42.668;23.364;2023-02-11T01:41:06;96728.94;;;-2.31;92.25
28626;BME280;18905;42.668;23.364;2023-02-11T01:43:35;96727.84;;;-2.43;95.45
28626;BME280;18905;42.668;23.364;2023-02-11T01:48:43;96726.53;;;-2.19;94.33
28626;BME280;18905;42.668;23.364;2023-02-11T01:51:16;96721.44;;;-2.14;93.49
28626;BME280;18905;42.668;23.364;2023-02-11T01:53:42;96721.59;;;-2.29;92.25
28626;BME280;18905;42.668;23.364;2023-02-11T02:40:23;96719.91;;;-2.49;93.00
28626;BME280;18905;42.668;23.364;2023-02-11T02:42:50;96717.44;;;-2.51;95.32
28626;BME280;18905;42.668;23.364;2023-02-11T02:45:17;96708.19;;;-2.74;96.04
28626;BME280;18905;42.668;23.364;2023-02-11T02:47:42;96712.59;;;-3.22;99.40
28626;BME280;18905;42.668;23.364;2023-02-11T02:50:08;96711.34;;;-3.26;100.00
28626;BME280;18905;42.668;23.364;2023-02-11T02:57:53;96715.59;;;-4.01;100.00
28626;BME280;18905;42.668;23.364;2023-02-11T03:00:35;96727.22;;;-3.95;100.00
28626;BME280;18905;42.668;23.364;2023-02-11T03:08:02;96724.47;;;-4.44;100.00
28626;BME280;18905;42.668;23.364;2023-02-11T03:10:35;96727.72;;;-4.42;100.00
28626;BME280;18905;42.668;23.364;2023-02-11T03:13:02;96722.88;;;-4.59;100.00
28626;BME280;18905;42.668;23.364;2023-02-11T03:15:31;96721.41;;;-4.62;100.00
28626;BME280;18905;42.668;23.364;2023-02-11T03:17:58;96724.97;;;-4.69;100.00
28626;BME280;18905;42.668;23.364;2023-02-11T03:20:24;96724.16;;;-4.70;100.00
28626;BME280;18905;42.668;23.364;2023-02-11T03:22:53;96730.59;;;-4.58;100.00
28626;BME280;18905;42.668;23.364;2023-02-11T03:25:20;96724.13;;;-4.55;100.00
28626;BME280;18905;42.668;23.364;2023-02-11T03:27:51;96726.34;;;-4.59;100.00
28626;BME280;18905;42.668;23.364;2023-02-11T03:30:23;96715.31;;;-4.62;100.00
28626;BME280;18905;42.668;23.364;2023-02-11T03:32:51;96718.44;;;-4.38;100.00
28626;BME280;18905;42.668;23.364;2023-02-11T03:35:27;96722.69;;;-4.58;100.00
28626;BME280;18905;42.668;23.364;2023-02-11T03:37:56;96726.59;;;-4.54;100.00
28626;BME280;18905;42.668;23.364;2023-02-11T03:40:26;96712.72;;;-4.41;100.00
28626;BME280;18905;42.668;23.364;2023-02-11T03:42:56;96723.34;;;-4.35;100.00
28626;BME280;18905;42.668;23.364;2023-02-11T03:45:22;96720.38;;;-4.11;100.00
28626;BME280;18905;42.668;23.364;2023-02-11T03:47:55;96722.59;;;-4.29;100.00
28626;BME280;18905;42.668;23.364;2023-02-11T03:50:22;96713.53;;;-4.05;100.00
28626;BME280;18905;42.668;23.364;2023-02-11T03:52:48;96718.09;;;-3.93;100.00
28626;BME280;18905;42.668;23.364;2023-02-11T03:55:17;96715.16;;;-3.83;100.00
28626;BME280;18905;42.668;23.364;2023-02-11T03:57:43;96712.75;;;-3.78;100.00
28626;BME280;18905;42.668;23.364;2023-02-11T04:00:09;96714.69;;;-3.66;100.00
28626;BME280;18905;42.668;23.364;2023-02-11T04:02:35;96709.53;;;-3.53;100.00
28626;BME280;18905;42.668;23.364;2023-02-11T04:05:01;96712.34;;;-3.82;100.00
28626;BME280;18905;42.668;23.364;2023-02-11T04:07:27;96709.81;;;-4.11;100.00
28626;BME280;18905;42.668;23.364;2023-02-11T04:09:52;96718.59;;;-4.25;100.00
28626;BME280;18905;42.668;23.364;2023-02-11T04:12:18;96717.97;;;-4.27;100.00
28626;BME280;18905;42.668;23.364;2023-02-11T04:14:43;96715.78;;;-4.23;100.00
28626;BME280;18905;42.668;23.364;2023-02-11T04:17:09;96719.53;;;-4.68;100.00
28626;BME280;18905;42.668;23.364;2023-02-11T04:19:34;96717.28;;;-5.00;100.00
28626;BME280;18905;42.668;23.364;2023-02-11T04:21:59;96728.63;;;-4.99;100.00
28626;BME280;18905;42.668;23.364;2023-02-11T04:24:25;96720.16;;;-5.24;100.00
28626;BME280;18905;42.668;23.364;2023-02-11T04:26:50;96722.44;;;-5.35;100.00
28626;BME280;18905;42.668;23.364;2023-02-11T04:29:15;96720.00;;;-5.22;100.00
28626;BME280;18905;42.668;23.364;2023-02-11T04:31:41;96721.91;;;-5.31;100.00
28626;BME280;18905;42.668;23.364;2023-02-11T04:34:06;96718.72;;;-5.41;100.00
28626;BME280;18905;42.668;23.364;2023-02-11T04:36:31;96715.00;;;-5.46;100.00
28626;BME280;18905;42.668;23.364;2023-02-11T04:38:56;96713.81;;;-5.44;100.00
28626;BME280;18905;42.668;23.364;2023-02-11T04:41:22;96715.00;;;-5.46;100.00
28626;BME280;18905;42.668;23.364;2023-02-11T04:43:47;96706.91;;;-5.45;100.00
28626;BME280;18905;42.668;23.364;2023-02-11T04:46:12;96714.97;;;-5.61;100.00
28626;BME280;18905;42.668;23.364;2023-02-11T04:48:37;96712.19;;;-5.45;100.00
28626;BME280;18905;42.668;23.364;2023-02-11T04:51:03;96715.00;;;-5.46;100.00
28626;BME280;18905;42.668;23.364;2023-02-11T04:53:28;96711.63;;;-5.55;100.00
28626;BME280;18905;42.668;23.364;2023-02-11T04:55:53;96719.56;;;-5.92;100.00
28626;BME280;18905;42.668;23.364;2023-02-11T04:58:19;96717.59;;;-5.61;100.00
28626;BME280;18905;42.668;23.364;2023-02-11T05:00:44;96711.53;;;-5.47;100.00
28626;BME280;18905;42.668;23.364;2023-02-11T05:03:10;96702.56;;;-5.38;100.00
28626;BME280;18905;42.668;23.364;2023-02-11T05:05:39;96705.63;;;-5.49;100.00
28626;BME280;18905;42.668;23.364;2023-02-11T05:08:05;96712.47;;;-5.40;100.00
28626;BME280;18905;42.668;23.364;2023-02-11T05:10:30;96708.66;;;-5.37;100.00
28626;BME280;18905;42.668;23.364;2023-02-11T05:12:56;96699.66;;;-5.43;100.00
28626;BME280;18905;42.668;23.364;2023-02-11T05:15:21;96701.47;;;-5.29;100.00
28626;BME280;18905;42.668;23.364;2023-02-11T05:17:46;96704.94;;;-5.28;100.00
28626;BME280;18905;42.668;23.364;2023-02-11T05:20:12;96693.31;;;-5.19;100.00
28626;BME280;18905;42.668;23.364;2023-02-11T05:22:37;96699.09;;;-5.53;100.00
28626;BME280;18905;42.668;23.364;2023-02-11T05:25:02;96702.97;;;-5.63;100.00
28626;BME280;18905;42.668;23.364;2023-02-11T05:27:27;96710.97;;;-5.71;100.00
28626;BME280;18905;42.668;23.364;2023-02-11T05:29:53;96704.69;;;-5.85;100.00
28626;BME280;18905;42.668;23.364;2023-02-11T05:32:18;96705.31;;;-5.97;100.00
28626;BME280;18905;42.668;23.364;2023-02-11T05:34:43;96698.16;;;-5.89;100.00
28626;BME280;18905;42.668;23.364;2023-02-11T05:37:08;96696.16;;;-5.87;100.00
28626;BME280;18905;42.668;23.364;2023-02-11T05:39:34;96707.94;;;-5.46;100.00
28626;BME280;18905;42.668;23.364;2023-02-11T05:41:59;96705.47;;;-5.47;100.00
28626;BME280;18905;42.668;23.364;2023-02-11T05:44:24;96700.72;;;-5.52;100.00
28626;BME280;18905;42.668;23.364;2023-02-11T05:46:49;96693.03;;;-5.53;100.00
28626;BME280;18905;42.668;23.364;2023-02-11T05:49:15;96706.47;;;-5.48;100.00
28626;BME280;18905;42.668;23.364;2023-02-11T05:51:41;96705.31;;;-5.68;100.00
28626;BME280;18905;42.668;23.364;2023-02-11T05:54:06;96714.78;;;-5.59;100.00
28626;BME280;18905;42.668;23.364;2023-02-11T05:56:32;96713.44;;;-5.55;100.00
28626;BME280;18905;42.668;23.364;2023-02-11T05:58:57;96708.16;;;-5.55;100.00
28626;BME280;18905;42.668;23.364;2023-02-11T06:01:23;96717.34;;;-5.51;100.00
28626;BME280;18905;42.668;23.364;2023-02-11T06:03:48;96722.25;;;-5.48;100.00
28626;BME280;18905;42.668;23.364;2023-02-11T06:06:15;96715.44;;;-5.43;100.00
28626;BME280;18905;42.668;23.364;2023-02-11T06:08:40;96716.03;;;-5.33;100.00
28626;BME280;18905;42.668;23.364;2023-02-11T06:11:07;96724.09;;;-5.34;100.00
28626;BME280;18905;42.668;23.364;2023-02-11T06:13:32;96723.09;;;-5.19;100.00
28626;BME280;18905;42.668;23.364;2023-02-11T06:15:58;96713.53;;;-5.20;100.00
28626;BME280;18905;42.668;23.364;2023-02-11T06:18:24;96721.72;;;-5.00;100.00
28626;BME280;18905;42.668;23.364;2023-02-11T06:20:49;96718.00;;;-5.06;100.00
28626;BME280;18905;42.668;23.364;2023-02-11T06:23:14;96720.00;;;-5.08;100.00
28626;BME280;18905;42.668;23.364;2023-02-11T06:25:40;96718.56;;;-5.10;100.00
28626;BME280;18905;42.668;23.364;2023-02-11T06:28:05;96722.91;;;-5.03;100.00
28626;BME280;18905;42.668;23.364;2023-02-11T06:30:30;96718.34;;;-4.80;100.00
28626;BME280;18905;42.668;23.364;2023-02-11T06:32:55;96718.50;;;-3.47;100.00
28626;BME280;18905;42.668;23.364;2023-02-11T06:35:21;96722.72;;;-1.13;100.00
28626;BME280;18905;42.668;23.364;2023-02-11T06:37:46;96718.44;;;0.45;91.53
28626;BME280;18905;42.668;23.364;2023-02-11T06:40:13;96713.81;;;1.07;74.68
28626;BME280;18905;42.668;23.364;2023-02-11T06:42:39;96714.13;;;2.60;65.36
28626;BME280;18905;42.668;23.364;2023-02-11T06:45:04;96719.81;;;4.18;60.09
28626;BME280;18905;42.668;23.364;2023-02-11T06:47:30;96720.94;;;4.50;52.22
28626;BME280;18905;42.668;23.364;2023-02-11T06:49:55;96727.78;;;4.01;52.08
28626;BME280;18905;42.668;23.364;2023-02-11T08:21:33;96669.84;;;6.15;57.60
28626;BME280;18905;42.668;23.364;2023-02-11T08:31:44;96668.50;;;5.91;47.16
28626;BME280;18905;42.668;23.364;2023-02-11T08:34:11;96664.94;;;6.07;46.87
28626;BME280;18905;42.668;23.364;2023-02-11T08:36:39;96672.94;;;4.88;47.09
28626;BME280;18905;42.668;23.364;2023-02-11T08:39:05;96677.22;;;4.00;49.25
28626;BME280;18905;42.668;23.364;2023-02-11T08:41:32;96668.59;;;4.09;50.60
28626;BME280;18905;42.668;23.364;2023-02-11T08:43:57;96675.63;;;4.43;49.60
28626;BME280;18905;42.668;23.364;2023-02-11T08:46:23;96677.47;;;4.71;49.95
28626;BME280;18905;42.668;23.364;2023-02-11T09:01:44;96669.59;;;4.64;48.54
28626;BME280;18905;42.668;23.364;2023-02-11T09:04:11;96672.47;;;6.10;47.16
28626;BME280;18905;42.668;23.364;2023-02-11T09:06:37;96668.91;;;5.23;47.79
28626;BME280;18905;42.668;23.364;2023-02-11T09:09:02;96661.81;;;4.18;48.54
28626;BME280;18905;42.668;23.364;2023-02-11T09:11:29;96664.91;;;4.27;49.65
28626;BME280;18905;42.668;23.364;2023-02-11T09:13:55;96665.53;;;4.62;49.53
28626;BME280;18905;42.668;23.364;2023-02-11T09:16:21;96658.84;;;4.31;50.35
28626;BME280;18905;42.668;23.364;2023-02-11T09:18:47;96664.00;;;4.66;49.13
28626;BME280;18905;42.668;23.364;2023-02-11T09:21:12;96657.47;;;4.29;50.17
28626;BME280;18905;42.668;23.364;2023-02-11T09:23:38;96651.81;;;4.14;50.20
28626;BME280;18905;42.668;23.364;2023-02-11T09:26:09;96647.78;;;3.44;51.49
28626;BME280;18905;42.668;23.364;2023-02-11T09:28:35;96643.88;;;4.30;49.87
28626;BME280;18905;42.668;23.364;2023-02-11T09:31:04;96649.50;;;4.17;50.92
28626;BME280;18905;42.668;23.364;2023-02-11T09:33:29;96648.38;;;3.46;51.93
28626;BME280;18905;42.668;23.364;2023-02-11T09:35:55;96644.06;;;3.84;50.88
28626;BME280;18905;42.668;23.364;2023-02-11T09:38:20;96649.06;;;4.53;49.65
28626;BME280;18905;42.668;23.364;2023-02-11T09:40:45;96642.75;;;4.43;49.47
28626;BME280;18905;42.668;23.364;2023-02-11T09:43:13;96631.16;;;4.54;49.61
28626;BME280;18905;42.668;23.364;2023-02-11T09:45:41;96626.13;;;4.74;48.08
28626;BME280;18905;42.668;23.364;2023-02-11T09:48:16;96626.72;;;5.14;48.32
28626;BME280;18905;42.668;23.364;2023-02-11T09:50:43;96614.78;;;4.34;48.34
28626;BME280;18905;42.668;23.364;2023-02-11T09:53:16;96613.38;;;4.81;48.44
28626;BME280;18905;42.668;23.364;2023-02-11T09:55:45;96612.56;;;5.35;46.79
28626;BME280;18905;42.668;23.364;2023-02-11T09:58:12;96611.19;;;5.97;44.79
28626;BME280;18905;42.668;23.364;2023-02-11T10:00:51;96600.47;;;6.23;44.92
28626;BME280;18905;42.668;23.364;2023-02-11T10:08:30;96588.69;;;5.12;46.37
28626;BME280;18905;42.668;23.364;2023-02-11T10:13:31;96580.00;;;4.67;47.52
28626;BME280;18905;42.668;23.364;2023-02-11T10:22:11;96554.81;;;5.22;46.90
28626;BME280;18905;42.668;23.364;2023-02-11T10:24:06;96549.28;;;5.29;44.98
28626;BME280;18905;42.668;23.364;2023-02-11T10:26:34;96552.81;;;5.56;44.62
28626;BME280;18905;42.668;23.364;2023-02-11T10:29:00;96540.28;;;4.97;45.66
28626;BME280;18905;42.668;23.364;2023-02-11T10:31:39;96533.84;;;6.10;42.38
28626;BME280;18905;42.668;23.364;2023-02-11T10:34:08;96530.13;;;6.16;42.00
28626;BME280;18905;42.668;23.364;2023-02-11T10:36:34;96523.28;;;5.99;42.86
28626;BME280;18905;42.668;23.364;2023-02-11T10:39:01;96513.22;;;4.77;44.46
28626;BME280;18905;42.668;23.364;2023-02-11T10:41:33;96498.66;;;3.97;45.85
28626;BME280;18905;42.668;23.364;2023-02-11T10:44:01;96496.88;;;5.16;45.93
28626;BME280;18905;42.668;23.364;2023-02-11T10:46:31;96495.09;;;5.00;45.42
28626;BME280;18905;42.668;23.364;2023-02-11T10:48:57;96489.91;;;4.72;45.23
28626;BME280;18905;42.668;23.364;2023-02-11T10:51:27;96491.66;;;4.83;45.50
28626;BME280;18905;42.668;23.364;2023-02-11T10:56:43;96471.72;;;4.74;44.55
28626;BME280;18905;42.668;23.364;2023-02-11T10:59:14;96464.91;;;6.47;59.45
28626;BME280;18905;42.668;23.364;2023-02-11T11:01:51;96460.00;;;7.42;53.68
28626;BME280;18905;42.668;23.364;2023-02-11T11:04:59;96459.16;;;9.70;47.00
28626;BME280;18905;42.668;23.364;2023-02-11T11:09:42;96458.88;;;7.23;41.43
28626;BME280;18905;42.668;23.364;2023-02-11T11:14:59;96462.16;;;6.01;42.30
28626;BME280;18905;42.668;23.364;2023-02-11T11:17:25;96453.97;;;5.59;43.60
28626;BME280;18905;42.668;23.364;2023-02-11T11:20:00;96454.88;;;5.96;43.08
28626;BME280;18905;42.668;23.364;2023-02-11T11:22:37;96449.19;;;5.88;44.37
28626;BME280;18905;42.668;23.364;2023-02-11T11:25:03;96443.38;;;5.74;44.56
28626;BME280;18905;42.668;23.364;2023-02-11T11:27:28;96443.50;;;6.16;43.16
28626;BME280;18905;42.668;23.364;2023-02-11T11:29:54;96445.75;;;5.66;44.08
28626;BME280;18905;42.668;23.364;2023-02-11T11:32:24;96436.69;;;6.40;44.02
28626;BME280;18905;42.668;23.364;2023-02-11T11:34:54;96450.88;;;5.99;43.49
28626;BME280;18905;42.668;23.364;2023-02-11T11:40:07;96441.44;;;5.38;43.63
28626;BME280;18905;42.668;23.364;2023-02-11T11:42:34;96433.81;;;5.52;43.49
28626;BME280;18905;42.668;23.364;2023-02-11T11:52:53;96427.03;;;5.44;43.66
28626;BME280;18905;42.668;23.364;2023-02-11T11:55:21;96415.34;;;5.82;42.90
28626;BME280;18905;42.668;23.364;2023-02-11T11:57:48;96409.44;;;5.53;42.97
28626;BME280;18905;42.668;23.364;2023-02-11T12:05:08;96392.13;;;6.34;42.28
28626;BME280;18905;42.668;23.364;2023-02-11T12:10:21;96382.72;;;6.88;42.04
28626;BME280;18905;42.668;23.364;2023-02-11T12:15:23;96373.66;;;7.04;41.88
28626;BME280;18905;42.668;23.364;2023-02-11T12:18:00;96373.50;;;6.64;43.51
28626;BME280;18905;42.668;23.364;2023-02-11T12:23:35;96361.53;;;6.91;42.40
28626;BME280;18905;42.668;23.364;2023-02-11T12:28:39;96356.03;;;6.61;42.12
28626;BME280;18905;42.668;23.364;2023-02-11T12:47:22;96329.56;;;5.82;40.10
28626;BME280;18905;42.668;23.364;2023-02-11T12:49:58;96335.69;;;5.77;40.66
28626;BME280;18905;42.668;23.364;2023-02-11T12:52:35;96335.13;;;6.07;39.08
28626;BME280;18905;42.668;23.364;2023-02-11T12:55:10;96320.31;;;5.99;39.20
28626;BME280;18905;42.668;23.364;2023-02-11T12:57:41;96319.59;;;6.19;39.76
28626;BME280;18905;42.668;23.364;2023-02-11T13:05:26;96317.66;;;6.61;40.81
28626;BME280;18905;42.668;23.364;2023-02-11T13:07:51;96314.53;;;6.89;39.80
28626;BME280;18905;42.668;23.364;2023-02-11T13:12:44;96314.94;;;6.56;40.80
28626;BME280;18905;42.668;23.364;2023-02-11T13:15:28;96308.31;;;6.68;40.94
28626;BME280;18905;42.668;23.364;2023-02-11T13:25:35;96306.03;;;5.89;42.37
28626;BME280;18905;42.668;23.364;2023-02-11T13:28:19;96299.22;;;6.18;41.64
28626;BME280;18905;42.668;23.364;2023-02-11T13:30:47;96295.69;;;6.07;41.98
28626;BME280;18905;42.668;23.364;2023-02-11T13:33:31;96292.28;;;6.22;41.67
28626;BME280;18905;42.668;23.364;2023-02-11T13:38:28;96293.47;;;6.51;41.35
28626;BME280;18905;42.668;23.364;2023-02-11T13:43:41;96293.19;;;5.91;41.34
28626;BME280;18905;42.668;23.364;2023-02-11T13:46:07;96281.00;;;6.20;40.74
28626;BME280;18905;42.668;23.364;2023-02-11T13:51:03;96281.41;;;5.97;40.97
28626;BME280;18905;42.668;23.364;2023-02-11T13:53:41;96274.34;;;5.44;41.25
28626;BME280;18905;42.668;23.364;2023-02-11T13:56:10;96271.69;;;5.81;40.94
28626;BME280;18905;42.668;23.364;2023-02-11T13:58:37;96276.59;;;5.62;39.70
28626;BME280;18905;42.668;23.364;2023-02-11T14:01:10;96265.84;;;5.57;39.61
28626;BME280;18905;42.668;23.364;2023-02-11T14:04:17;96264.00;;;5.58;39.96
28626;BME280;18905;42.668;23.364;2023-02-11T14:10:05;96255.75;;;5.69;39.42
28626;BME280;18905;42.668;23.364;2023-02-11T14:13:17;96257.91;;;6.14;39.49
28626;BME280;18905;42.668;23.364;2023-02-11T14:15:46;96259.16;;;5.60;38.66
28626;BME280;18905;42.668;23.364;2023-02-11T14:23:40;96247.59;;;5.49;40.13
28626;BME280;18905;42.668;23.364;2023-02-11T14:26:26;96245.25;;;5.58;40.29
28626;BME280;18905;42.668;23.364;2023-02-11T14:28:59;96244.28;;;5.37;40.21
28626;BME280;18905;42.668;23.364;2023-02-11T14:31:29;96241.78;;;5.26;40.59
28626;BME280;18905;42.668;23.364;2023-02-11T14:36:34;96250.38;;;5.28;41.37
28626;BME280;18905;42.668;23.364;2023-02-11T14:39:12;96246.22;;;5.10;42.09
28626;BME280;18905;42.668;23.364;2023-02-11T14:41:43;96246.47;;;5.09;42.48
28626;BME280;18905;42.668;23.364;2023-02-11T14:44:20;96250.22;;;5.08;42.66
28626;BME280;18905;42.668;23.364;2023-02-11T14:47:05;96242.06;;;4.93;43.10
28626;BME280;18905;42.668;23.364;2023-02-11T14:49:35;96247.81;;;4.80;43.21
28626;BME280;18905;42.668;23.364;2023-02-11T14:52:12;96246.50;;;4.82;43.32
28626;BME280;18905;42.668;23.364;2023-02-11T14:54:41;96256.19;;;4.88;43.88
28626;BME280;18905;42.668;23.364;2023-02-11T14:57:15;96251.03;;;4.82;44.34
28626;BME280;18905;42.668;23.364;2023-02-11T14:59:54;96242.72;;;4.52;44.03
28626;BME280;18905;42.668;23.364;2023-02-11T15:02:23;96251.66;;;4.89;43.87
28626;BME280;18905;42.668;23.364;2023-02-11T15:04:50;96250.22;;;4.76;44.33
28626;BME280;18905;42.668;23.364;2023-02-11T15:07:15;96243.91;;;4.61;44.89
28626;BME280;18905;42.668;23.364;2023-02-11T15:09:46;96229.06;;;4.48;44.30
28626;BME280;18905;42.668;23.364;2023-02-11T15:12:14;96236.66;;;4.61;45.15
28626;BME280;18905;42.668;23.364;2023-02-11T15:14:44;96237.09;;;4.48;44.80
28626;BME280;18905;42.668;23.364;2023-02-11T15:17:11;96230.25;;;4.36;45.46
28626;BME280;18905;42.668;23.364;2023-02-11T15:19:39;96232.81;;;4.26;45.90
28626;BME280;18905;42.668;23.364;2023-02-11T15:27:38;96214.34;;;4.24;46.26
28626;BME280;18905;42.668;23.364;2023-02-11T15:30:16;96222.38;;;3.60;46.61
28626;BME280;18905;42.668;23.364;2023-02-11T15:35:10;96216.53;;;3.63;47.09
28626;BME280;18905;42.668;23.364;2023-02-11T15:37:37;96213.09;;;3.46;47.84
28626;BME280;18905;42.668;23.364;2023-02-11T15:40:11;96215.84;;;3.51;47.73
28626;BME280;18905;42.668;23.364;2023-02-11T15:42:36;96214.19;;;3.66;48.12
28626;BME280;18905;42.668;23.364;2023-02-11T15:47:41;96213.59;;;3.43;48.20
28626;BME280;18905;42.668;23.364;2023-02-11T15:50:18;96209.88;;;3.27;49.03
28626;BME280;18905;42.668;23.364;2023-02-11T15:52:44;96216.75;;;3.23;48.80
28626;BME280;18905;42.668;23.364;2023-02-11T15:55:44;96223.63;;;3.36;49.11
28626;BME280;18905;42.668;23.364;2023-02-11T15:58:10;96212.75;;;3.04;49.37
28626;BME280;18905;42.668;23.364;2023-02-11T16:00:37;96215.81;;;2.80;50.14
28626;BME280;18905;42.668;23.364;2023-02-11T16:03:17;96213.22;;;3.01;49.67
28626;BME280;18905;42.668;23.364;2023-02-11T16:05:44;96218.47;;;3.13;49.63
28626;BME280;18905;42.668;23.364;2023-02-11T16:08:23;96221.22;;;3.18;49.54
28626;BME280;18905;42.668;23.364;2023-02-11T16:10:59;96220.00;;;3.09;50.06
28626;BME280;18905;42.668;23.364;2023-02-11T16:13:27;96213.13;;;3.13;50.34
28626;BME280;18905;42.668;23.364;2023-02-11T16:15:56;96227.22;;;2.75;50.46
28626;BME280;18905;42.668;23.364;2023-02-11T16:18:26;96216.22;;;2.88;51.09
28626;BME280;18905;42.668;23.364;2023-02-11T16:20:53;96219.06;;;2.98;50.71
28626;BME280;18905;42.668;23.364;2023-02-11T16:23:20;96207.63;;;3.03;51.14
28626;BME280;18905;42.668;23.364;2023-02-11T16:25:46;96214.66;;;2.76;51.41
28626;BME280;18905;42.668;23.364;2023-02-11T16:30:50;96221.03;;;2.42;52.63
28626;BME280;18905;42.668;23.364;2023-02-11T16:33:15;96220.03;;;2.31;53.23
28626;BME280;18905;42.668;23.364;2023-02-11T16:35:41;96222.91;;;2.30;53.54
28626;BME280;18905;42.668;23.364;2023-02-11T16:38:08;96220.72;;;2.55;52.92
28626;BME280;18905;42.668;23.364;2023-02-11T16:40:34;96226.81;;;2.39;52.89
28626;BME280;18905;42.668;23.364;2023-02-11T16:42:59;96229.53;;;2.27;53.03
28626;BME280;18905;42.668;23.364;2023-02-11T16:48:00;96225.97;;;2.22;53.08
28626;BME280;18905;42.668;23.364;2023-02-11T16:50:26;96226.25;;;4.60;100.00
28626;BME280;18905;42.668;23.364;2023-02-11T16:52:51;96218.41;;;6.91;100.00
28626;BME280;18905;42.668;23.364;2023-02-11T16:55:17;96223.72;;;7.86;64.34
28626;BME280;18905;42.668;23.364;2023-02-11T16:57:42;96223.63;;;8.11;63.51
28626;BME280;18905;42.668;23.364;2023-02-11T17:00:08;96218.69;;;7.04;55.08
28626;BME280;18905;42.668;23.364;2023-02-11T17:02:35;96222.06;;;8.00;61.48
28626;BME280;18905;42.668;23.364;2023-02-11T17:05:01;96227.84;;;8.37;55.47
28626;BME280;18905;42.668;23.364;2023-02-11T17:07:27;96222.13;;;6.65;44.74
28626;BME280;18905;42.668;23.364;2023-02-11T17:09:52;96225.28;;;5.39;46.10
28626;BME280;18905;42.668;23.364;2023-02-11T17:12:18;96228.91;;;4.12;47.49
28626;BME280;18905;42.668;23.364;2023-02-11T17:17:18;96212.88;;;2.48;51.46
28626;BME280;18905;42.668;23.364;2023-02-11T17:19:46;96220.59;;;2.78;52.07
28626;BME280;18905;42.668;23.364;2023-02-11T17:22:11;96217.91;;;2.61;53.24
28626;BME280;18905;42.668;23.364;2023-02-11T17:24:37;96211.59;;;2.51;53.78
28626;BME280;18905;42.668;23.364;2023-02-11T17:27:02;96214.84;;;2.25;54.56
28626;BME280;18905;42.668;23.364;2023-02-11T17:29:28;96218.94;;;2.16;55.23
28626;BME280;18905;42.668;23.364;2023-02-11T17:31:53;96221.78;;;1.98;56.31
28626;BME280;18905;42.668;23.364;2023-02-11T17:34:19;96214.03;;;1.85;56.36
28626;BME280;18905;42.668;23.364;2023-02-11T17:36:50;96225.19;;;1.82;57.03
28626;BME280;18905;42.668;23.364;2023-02-11T17:39:16;96220.19;;;1.85;57.26
28626;BME280;18905;42.668;23.364;2023-02-11T17:41:43;96226.41;;;1.63;57.65
28626;BME280;18905;42.668;23.364;2023-02-11T17:44:11;96224.16;;;1.71;58.17
28626;BME280;18905;42.668;23.364;2023-02-11T17:46:38;96214.66;;;1.75;57.97
28626;BME280;18905;42.668;23.364;2023-02-11T17:49:03;96234.59;;;1.73;58.16
28626;BME280;18905;42.668;23.364;2023-02-11T17:53:57;96226.13;;;1.76;58.10
28626;BME280;18905;42.668;23.364;2023-02-11T17:56:23;96232.19;;;1.60;58.40
28626;BME280;18905;42.668;23.364;2023-02-11T17:58:48;96243.91;;;1.24;59.28
28626;BME280;18905;42.668;23.364;2023-02-11T18:01:14;96244.22;;;1.51;58.92
28626;BME280;18905;42.668;23.364;2023-02-11T18:03:40;96239.09;;;1.72;58.47
28626;BME280;18905;42.668;23.364;2023-02-11T18:31:57;96231.47;;;1.53;58.33
28626;BME280;18905;42.668;23.364;2023-02-11T18:36:57;96230.34;;;1.26;57.51
28626;BME280;18905;42.668;23.364;2023-02-11T18:47:08;96213.13;;;1.28;58.02
28626;BME280;18905;42.668;23.364;2023-02-11T18:49:33;96215.06;;;1.44;57.36
28626;BME280;18905;42.668;23.364;2023-02-11T18:52:00;96212.75;;;1.36;57.28
28626;BME280;18905;42.668;23.364;2023-02-11T19:15:06;96203.28;;;1.17;56.35
28626;BME280;18905;42.668;23.364;2023-02-11T19:22:56;96207.81;;;1.28;55.43
28626;BME280;18905;42.668;23.364;2023-02-11T19:25:21;96202.63;;;1.10;55.27
28626;BME280;18905;42.668;23.364;2023-02-11T19:27:46;96196.34;;;1.39;54.42
28626;BME280;18905;42.668;23.364;2023-02-11T19:35:23;96190.00;;;1.17;54.03
28626;BME280;18905;42.668;23.364;2023-02-11T19:37:49;96190.34;;;0.98;53.35
28626;BME280;18905;42.668;23.364;2023-02-11T19:40:14;96177.03;;;1.09;52.41
28626;BME280;18905;42.668;23.364;2023-02-11T19:42:40;96178.78;;;1.27;52.04
28626;BME280;18905;42.668;23.364;2023-02-11T19:45:06;96188.84;;;1.13;51.96
28626;BME280;18905;42.668;23.364;2023-02-11T19:47:32;96173.81;;;1.19;51.99
28626;BME280;18905;42.668;23.364;2023-02-11T19:49:58;96173.56;;;1.32;51.83
28626;BME280;18905;42.668;23.364;2023-02-11T19:52:23;96172.97;;;1.30;51.68
28626;BME280;18905;42.668;23.364;2023-02-11T19:54:48;96170.31;;;1.30;51.81
28626;BME280;18905;42.668;23.364;2023-02-11T19:57:14;96174.69;;;1.47;51.20
28626;BME280;18905;42.668;23.364;2023-02-11T19:59:39;96173.22;;;1.40;50.98
28626;BME280;18905;42.668;23.364;2023-02-11T20:02:05;96178.19;;;1.02;51.24
28626;BME280;18905;42.668;23.364;2023-02-11T20:04:30;96172.38;;;1.39;51.02
28626;BME280;18905;42.668;23.364;2023-02-11T20:06:56;96166.00;;;1.40;51.02
28626;BME280;18905;42.668;23.364;2023-02-11T20:09:22;96165.69;;;1.37;50.08
28626;BME280;18905;42.668;23.364;2023-02-11T20:11:47;96170.06;;;1.31;50.56